Three Legged Cross, United Kingdom
Current Conditions -  °F | °C
As of 4:20 PM on Friday 19 Dec 2014 (Local Time) from EGHH Reporting Station
Few Clouds Few Clouds  
Wind Chill: 40°   Ceiling: Unl
Heat Index: 45°   Visibility: 6mi
Dew Point: 37°   Wind: 9mph
Humidity: 76%   Direction: 280°W
Pressure: 30.15"   Gusts: NA
Location:  50.85°N, 1.88°W
Report Text: EGHH 191620Z 28008KT 9999 FEW030 07/03 Q1021
Loading
Personal Weather Stations






























Interactive Weather Map New forecast layout! Learn more

10-Day Weather Forecast

Advertisements
Track Severe Weather on mobile